sensor_id;sensor_type;location;lat;lon;timestamp;pressure;altitude;pressure_sealevel;temperature;humidity
80509;BME280;69838;52.602;13.434;2023-07-08T00:00:20;101646.13;;;12.84;86.66
80509;BME280;69838;52.602;13.434;2023-07-08T00:01:14;101638.19;;;12.79;86.32
80509;BME280;69838;52.602;13.434;2023-07-08T00:02:00;101651.59;;;12.82;86.69
80509;BME280;69838;52.602;13.434;2023-07-08T00:02:45;101639.22;;;12.76;86.30
80509;BME280;69838;52.602;13.434;2023-07-08T00:03:30;101650.97;;;12.75;86.46
80509;BME280;69838;52.602;13.434;2023-07-08T00:04:16;101650.16;;;12.73;86.73
80509;BME280;69838;52.602;13.434;2023-07-08T00:05:01;101646.59;;;12.73;86.69
80509;BME280;69838;52.602;13.434;2023-07-08T00:05:48;101650.28;;;12.70;86.71
80509;BME280;69838;52.602;13.434;2023-07-08T00:06:35;101650.44;;;12.67;86.43
80509;BME280;69838;52.602;13.434;2023-07-08T00:07:21;101647.81;;;12.66;87.03
80509;BME280;69838;52.602;13.434;2023-07-08T00:08:16;101648.56;;;12.69;87.83
80509;BME280;69838;52.602;13.434;2023-07-08T00:09:01;101646.78;;;12.68;87.31
80509;BME280;69838;52.602;13.434;2023-07-08T00:09:46;101650.44;;;12.67;86.99
80509;BME280;69838;52.602;13.434;2023-07-08T00:10:32;101650.38;;;12.69;86.85
80509;BME280;69838;52.602;13.434;2023-07-08T00:11:17;101651.03;;;12.74;87.17
80509;BME280;69838;52.602;13.434;2023-07-08T00:12:09;101648.44;;;12.72;87.29
80509;BME280;69838;52.602;13.434;2023-07-08T00:12:55;101651.94;;;12.74;87.31
80509;BME280;69838;52.602;13.434;2023-07-08T00:13:41;101651.25;;;12.69;87.23
80509;BME280;69838;52.602;13.434;2023-07-08T00:14:26;101648.66;;;12.66;87.21
80509;BME280;69838;52.602;13.434;2023-07-08T00:15:11;101650.16;;;12.73;87.43
80509;BME280;69838;52.602;13.434;2023-07-08T00:15:57;101661.00;;;12.73;87.49
80509;BME280;69838;52.602;13.434;2023-07-08T00:16:42;101654.03;;;12.68;87.31
80509;BME280;69838;52.602;13.434;2023-07-08T00:17:27;101655.88;;;12.67;87.76
80509;BME280;69838;52.602;13.434;2023-07-08T00:18:15;101652.13;;;12.70;87.48
80509;BME280;69838;52.602;13.434;2023-07-08T00:19:00;101648.66;;;12.66;87.77
80509;BME280;69838;52.602;13.434;2023-07-08T00:19:46;101649.63;;;12.65;88.03
80509;BME280;69838;52.602;13.434;2023-07-08T00:20:38;101648.94;;;12.60;87.67
80509;BME280;69838;52.602;13.434;2023-07-08T00:21:23;101648.19;;;12.56;87.67
80509;BME280;69838;52.602;13.434;2023-07-08T00:22:13;101641.00;;;12.55;87.64
80509;BME280;69838;52.602;13.434;2023-07-08T00:22:59;101647.28;;;12.56;88.23
80509;BME280;69838;52.602;13.434;2023-07-08T00:23:50;101643.66;;;12.57;88.11
80509;BME280;69838;52.602;13.434;2023-07-08T00:24:36;101642.84;;;12.55;87.95
80509;BME280;69838;52.602;13.434;2023-07-08T00:25:21;101633.91;;;12.53;88.17
80509;BME280;69838;52.602;13.434;2023-07-08T00:26:25;101638.63;;;12.48;87.71
80509;BME280;69838;52.602;13.434;2023-07-08T00:27:12;101635.19;;;12.44;87.83
80509;BME280;69838;52.602;13.434;2023-07-08T00:27:58;101649.66;;;12.43;88.01
80509;BME280;69838;52.602;13.434;2023-07-08T00:28:43;101638.97;;;12.40;88.08
80509;BME280;69838;52.602;13.434;2023-07-08T00:29:28;101641.59;;;12.41;88.31
80509;BME280;69838;52.602;13.434;2023-07-08T00:30:59;101637.88;;;12.44;88.46
80509;BME280;69838;52.602;13.434;2023-07-08T00:31:44;101642.44;;;12.44;88.63
80509;BME280;69838;52.602;13.434;2023-07-08T00:32:29;101641.47;;;12.45;88.92
80509;BME280;69838;52.602;13.434;2023-07-08T00:33:15;101635.22;;;12.43;88.82
80509;BME280;69838;52.602;13.434;2023-07-08T00:34:01;101637.06;;;12.42;88.39
80509;BME280;69838;52.602;13.434;2023-07-08T00:34:48;101645.94;;;12.46;88.44
80509;BME280;69838;52.602;13.434;2023-07-08T00:35:38;101643.41;;;12.41;88.37
80509;BME280;69838;52.602;13.434;2023-07-08T00:36:26;101643.47;;;12.39;88.54
80509;BME280;69838;52.602;13.434;2023-07-08T00:37:12;101644.56;;;12.35;88.51
80509;BME280;69838;52.602;13.434;2023-07-08T00:37:57;101651.00;;;12.33;88.29
80509;BME280;69838;52.602;13.434;2023-07-08T00:38:46;101645.59;;;12.33;88.57
80509;BME280;69838;52.602;13.434;2023-07-08T00:39:32;101646.69;;;12.27;88.32
80509;BME280;69838;52.602;13.434;2023-07-08T00:40:21;101644.94;;;12.26;88.88
80509;BME280;69838;52.602;13.434;2023-07-08T00:41:27;101646.84;;;12.24;88.98
80509;BME280;69838;52.602;13.434;2023-07-08T00:42:19;101648.78;;;12.20;88.87
80509;BME280;69838;52.602;13.434;2023-07-08T00:43:08;101649.78;;;12.18;88.82
80509;BME280;69838;52.602;13.434;2023-07-08T00:43:55;101649.84;;;12.16;89.31
80509;BME280;69838;52.602;13.434;2023-07-08T00:44:41;101650.75;;;12.17;89.37
80509;BME280;69838;52.602;13.434;2023-07-08T00:45:39;101643.44;;;12.19;89.53
80509;BME280;69838;52.602;13.434;2023-07-08T00:47:17;101646.31;;;12.14;89.64
80509;BME280;69838;52.602;13.434;2023-07-08T00:49:58;101647.34;;;12.12;90.35
80509;BME280;69838;52.602;13.434;2023-07-08T00:50:47;101649.22;;;12.10;89.82
80509;BME280;69838;52.602;13.434;2023-07-08T00:51:38;101650.03;;;12.12;90.08
80509;BME280;69838;52.602;13.434;2023-07-08T00:52:26;101652.75;;;12.12;90.13
80509;BME280;69838;52.602;13.434;2023-07-08T00:53:32;101653.75;;;12.09;90.14
80509;BME280;69838;52.602;13.434;2023-07-08T00:54:19;101658.16;;;12.12;90.29
80509;BME280;69838;52.602;13.434;2023-07-08T00:55:06;101659.03;;;12.12;90.31
80509;BME280;69838;52.602;13.434;2023-07-08T00:55:57;101650.81;;;12.15;90.00
80509;BME280;69838;52.602;13.434;2023-07-08T00:56:48;101656.28;;;12.14;90.30
80509;BME280;69838;52.602;13.434;2023-07-08T00:57:38;101658.16;;;12.12;90.13
80509;BME280;69838;52.602;13.434;2023-07-08T00:58:29;101651.78;;;12.13;90.42
80509;BME280;69838;52.602;13.434;2023-07-08T00:59:21;101661.75;;;12.12;90.27
80509;BME280;69838;52.602;13.434;2023-07-08T01:00:14;101660.94;;;12.10;90.21
80509;BME280;69838;52.602;13.434;2023-07-08T01:01:04;101664.56;;;12.09;89.95
80509;BME280;69838;52.602;13.434;2023-07-08T01:01:50;101656.38;;;12.11;90.37
80509;BME280;69838;52.602;13.434;2023-07-08T01:02:52;101656.38;;;12.11;90.04
80509;BME280;69838;52.602;13.434;2023-07-08T01:03:47;101654.88;;;12.03;90.22
80509;BME280;69838;52.602;13.434;2023-07-08T01:04:40;101656.50;;;12.08;90.38
80509;BME280;69838;52.602;13.434;2023-07-08T01:05:28;101648.59;;;12.03;90.37
80509;BME280;69838;52.602;13.434;2023-07-08T01:06:16;101659.53;;;12.00;90.19
80509;BME280;69838;52.602;13.434;2023-07-08T01:07:02;101654.22;;;11.97;89.96
80509;BME280;69838;52.602;13.434;2023-07-08T01:07:51;101652.53;;;11.94;90.03
80509;BME280;69838;52.602;13.434;2023-07-08T01:08:39;101645.34;;;11.93;90.23
80509;BME280;69838;52.602;13.434;2023-07-08T01:09:27;101654.31;;;11.95;90.68
80509;BME280;69838;52.602;13.434;2023-07-08T01:10:17;101648.22;;;11.90;90.00
80509;BME280;69838;52.602;13.434;2023-07-08T01:11:04;101656.31;;;11.90;90.68
80509;BME280;69838;52.602;13.434;2023-07-08T01:11:50;101654.56;;;11.88;90.77
80509;BME280;69838;52.602;13.434;2023-07-08T01:12:40;101652.88;;;11.85;90.24
80509;BME280;69838;52.602;13.434;2023-07-08T01:13:30;101657.34;;;11.86;90.49
80509;BME280;69838;52.602;13.434;2023-07-08T01:14:19;101653.94;;;11.81;90.42
80509;BME280;69838;52.602;13.434;2023-07-08T01:15:06;101646.81;;;11.78;90.26
80509;BME280;69838;52.602;13.434;2023-07-08T01:15:52;101644.88;;;11.82;90.21
80509;BME280;69838;52.602;13.434;2023-07-08T01:16:37;101653.94;;;11.81;90.03
80509;BME280;69838;52.602;13.434;2023-07-08T01:17:23;101655.94;;;11.76;90.09
80509;BME280;69838;52.602;13.434;2023-07-08T01:18:09;101642.59;;;11.71;90.35
80509;BME280;69838;52.602;13.434;2023-07-08T01:18:55;101642.47;;;11.74;90.47
80509;BME280;69838;52.602;13.434;2023-07-08T01:19:41;101647.03;;;11.74;90.69
80509;BME280;69838;52.602;13.434;2023-07-08T01:20:27;101653.47;;;11.70;90.79
80509;BME280;69838;52.602;13.434;2023-07-08T01:21:35;101649.59;;;11.77;90.91
80509;BME280;69838;52.602;13.434;2023-07-08T01:22:22;101641.34;;;11.80;90.81
80509;BME280;69838;52.602;13.434;2023-07-08T01:23:07;101646.75;;;11.80;90.53
80509;BME280;69838;52.602;13.434;2023-07-08T01:23:52;101649.63;;;11.75;90.44
80509;BME280;69838;52.602;13.434;2023-07-08T01:24:41;101649.78;;;11.72;90.55
80509;BME280;69838;52.602;13.434;2023-07-08T01:25:27;101645.25;;;11.73;90.57
80509;BME280;69838;52.602;13.434;2023-07-08T01:26:13;101639.84;;;11.73;90.43
80509;BME280;69838;52.602;13.434;2023-07-08T01:27:00;101639.94;;;11.70;90.52
80509;BME280;69838;52.602;13.434;2023-07-08T01:27:49;101634.69;;;11.67;90.62
80509;BME280;69838;52.602;13.434;2023-07-08T01:28:37;101633.78;;;11.66;90.68
80509;BME280;69838;52.602;13.434;2023-07-08T01:29:22;101640.97;;;11.67;90.78
80509;BME280;69838;52.602;13.434;2023-07-08T01:30:08;101636.69;;;11.61;90.51
80509;BME280;69838;52.602;13.434;2023-07-08T01:30:55;101636.78;;;11.58;90.74
80509;BME280;69838;52.602;13.434;2023-07-08T01:31:40;101636.78;;;11.58;90.91
80509;BME280;69838;52.602;13.434;2023-07-08T01:32:26;101635.00;;;11.57;91.20
80509;BME280;69838;52.602;13.434;2023-07-08T01:33:19;101637.66;;;11.59;91.34
80509;BME280;69838;52.602;13.434;2023-07-08T01:34:09;101634.09;;;11.58;91.14
80509;BME280;69838;52.602;13.434;2023-07-08T01:34:58;101629.59;;;11.57;91.58
80509;BME280;69838;52.602;13.434;2023-07-08T01:35:46;101632.91;;;11.65;91.37
80509;BME280;69838;52.602;13.434;2023-07-08T01:36:40;101633.00;;;11.62;91.08
80509;BME280;69838;52.602;13.434;2023-07-08T01:37:31;101623.97;;;11.63;91.20
80509;BME280;69838;52.602;13.434;2023-07-08T01:38:23;101625.59;;;11.68;90.97
80509;BME280;69838;52.602;13.434;2023-07-08T01:39:11;101627.50;;;11.65;90.95
80509;BME280;69838;52.602;13.434;2023-07-08T01:40:14;101623.97;;;11.63;90.82
80509;BME280;69838;52.602;13.434;2023-07-08T01:41:00;101625.72;;;11.64;90.73
80509;BME280;69838;52.602;13.434;2023-07-08T01:41:46;101625.84;;;11.61;90.91
80509;BME280;69838;52.602;13.434;2023-07-08T01:42:31;101623.22;;;11.60;91.09
80509;BME280;69838;52.602;13.434;2023-07-08T01:43:16;101630.44;;;11.59;91.12
80509;BME280;69838;52.602;13.434;2023-07-08T01:44:01;101624.06;;;11.60;91.17
80509;BME280;69838;52.602;13.434;2023-07-08T01:44:47;101625.09;;;11.58;91.04
80509;BME280;69838;52.602;13.434;2023-07-08T01:45:38;101615.91;;;11.62;91.51
80509;BME280;69838;52.602;13.434;2023-07-08T01:46:26;101619.53;;;11.61;91.68
80509;BME280;69838;52.602;13.434;2023-07-08T01:47:17;101629.59;;;11.57;90.70
80509;BME280;69838;52.602;13.434;2023-07-08T01:48:06;101624.34;;;11.54;90.88
80509;BME280;69838;52.602;13.434;2023-07-08T01:48:55;101626.22;;;11.52;90.75
80509;BME280;69838;52.602;13.434;2023-07-08T01:49:42;101628.06;;;11.50;91.03
80509;BME280;69838;52.602;13.434;2023-07-08T01:50:29;101622.66;;;11.50;91.42
80509;BME280;69838;52.602;13.434;2023-07-08T01:51:16;101626.22;;;11.52;91.38
80509;BME280;69838;52.602;13.434;2023-07-08T01:52:01;101618.28;;;11.48;91.20
80509;BME280;69838;52.602;13.434;2023-07-08T01:52:48;101622.81;;;11.47;91.40
80509;BME280;69838;52.602;13.434;2023-07-08T01:53:37;101620.09;;;11.47;91.18
80509;BME280;69838;52.602;13.434;2023-07-08T01:54:23;101627.16;;;11.51;91.49
80509;BME280;69838;52.602;13.434;2023-07-08T01:55:08;101626.31;;;11.49;91.31
80509;BME280;69838;52.602;13.434;2023-07-08T01:55:53;101616.63;;;11.43;91.19
80509;BME280;69838;52.602;13.434;2023-07-08T01:56:38;101624.69;;;11.45;91.31
80509;BME280;69838;52.602;13.434;2023-07-08T01:57:24;101626.44;;;11.46;91.47
80509;BME280;69838;52.602;13.434;2023-07-08T01:58:09;101627.41;;;11.45;91.49
80509;BME280;69838;52.602;13.434;2023-07-08T01:58:54;101622.00;;;11.45;91.44
80509;BME280;69838;52.602;13.434;2023-07-08T01:59:39;101617.50;;;11.44;91.31
80509;BME280;69838;52.602;13.434;2023-07-08T02:00:25;101625.66;;;11.42;91.44
80509;BME280;69838;52.602;13.434;2023-07-08T02:01:10;101621.13;;;11.43;91.46
80509;BME280;69838;52.602;13.434;2023-07-08T02:01:55;101619.38;;;11.42;91.67
80509;BME280;69838;52.602;13.434;2023-07-08T02:02:40;101622.03;;;11.43;91.71
80509;BME280;69838;52.602;13.434;2023-07-08T02:03:27;101619.50;;;11.39;91.21
80509;BME280;69838;52.602;13.434;2023-07-08T02:04:12;101615.09;;;11.36;91.17
80509;BME280;69838;52.602;13.434;2023-07-08T02:04:57;101617.88;;;11.35;91.29
80509;BME280;69838;52.602;13.434;2023-07-08T02:05:43;101615.38;;;11.28;91.15
80509;BME280;69838;52.602;13.434;2023-07-08T02:06:28;101615.16;;;11.35;91.55
80509;BME280;69838;52.602;13.434;2023-07-08T02:07:13;101619.50;;;11.39;91.50
80509;BME280;69838;52.602;13.434;2023-07-08T02:07:58;101620.56;;;11.35;91.44
80509;BME280;69838;52.602;13.434;2023-07-08T02:08:44;101617.88;;;11.35;91.10
80509;BME280;69838;52.602;13.434;2023-07-08T02:09:29;101623.16;;;11.38;91.52
80509;BME280;69838;52.602;13.434;2023-07-08T02:10:14;101624.03;;;11.38;91.49
80509;BME280;69838;52.602;13.434;2023-07-08T02:11:00;101616.03;;;11.35;91.53
80509;BME280;69838;52.602;13.434;2023-07-08T02:11:45;101616.03;;;11.35;91.32
80509;BME280;69838;52.602;13.434;2023-07-08T02:12:30;101620.56;;;11.35;91.31
80509;BME280;69838;52.602;13.434;2023-07-08T02:13:15;101626.91;;;11.34;91.52
80509;BME280;69838;52.602;13.434;2023-07-08T02:14:01;101625.88;;;11.38;91.37
80509;BME280;69838;52.602;13.434;2023-07-08T02:14:48;101606.28;;;11.31;91.23
80509;BME280;69838;52.602;13.434;2023-07-08T02:15:34;101620.56;;;11.35;91.19
80509;BME280;69838;52.602;13.434;2023-07-08T02:16:19;101622.50;;;11.31;91.27
80509;BME280;69838;52.602;13.434;2023-07-08T02:17:04;101623.47;;;11.28;90.95
80509;BME280;69838;52.602;13.434;2023-07-08T02:17:50;101621.63;;;11.31;91.44
80509;BME280;69838;52.602;13.434;2023-07-08T02:18:35;101618.97;;;11.29;91.68
80509;BME280;69838;52.602;13.434;2023-07-08T02:19:21;101615.25;;;11.32;91.37
80509;BME280;69838;52.602;13.434;2023-07-08T02:20:07;101627.16;;;11.27;90.95
80509;BME280;69838;52.602;13.434;2023-07-08T02:20:53;101621.84;;;11.24;90.98
80509;BME280;69838;52.602;13.434;2023-07-08T02:21:40;101624.59;;;11.23;91.27
80509;BME280;69838;52.602;13.434;2023-07-08T02:22:25;101620.91;;;11.25;91.31
80509;BME280;69838;52.602;13.434;2023-07-08T02:23:11;101619.97;;;11.26;91.30
80509;BME280;69838;52.602;13.434;2023-07-08T02:23:57;101621.75;;;11.27;91.36
80509;BME280;69838;52.602;13.434;2023-07-08T02:24:42;101616.28;;;11.29;91.32
80509;BME280;69838;52.602;13.434;2023-07-08T02:25:27;101618.31;;;11.22;91.16
80509;BME280;69838;52.602;13.434;2023-07-08T02:26:13;101622.91;;;11.20;91.11
80509;BME280;69838;52.602;13.434;2023-07-08T02:26:58;101617.56;;;11.19;91.24
80509;BME280;69838;52.602;13.434;2023-07-08T02:27:44;101616.69;;;11.18;91.51
80509;BME280;69838;52.602;13.434;2023-07-08T02:28:29;101616.78;;;11.15;91.24
80509;BME280;69838;52.602;13.434;2023-07-08T02:29:15;101618.56;;;11.16;91.22
80509;BME280;69838;52.602;13.434;2023-07-08T02:30:00;101623.19;;;11.13;91.12
80509;BME280;69838;52.602;13.434;2023-07-08T02:30:46;101617.03;;;11.09;91.11
80509;BME280;69838;52.602;13.434;2023-07-08T02:31:31;101616.19;;;11.07;91.62
80509;BME280;69838;52.602;13.434;2023-07-08T02:32:16;101615.25;;;11.08;91.97
80509;BME280;69838;52.602;13.434;2023-07-08T02:33:02;101615.34;;;11.05;91.49
80509;BME280;69838;52.602;13.434;2023-07-08T02:33:47;101616.19;;;11.07;91.95
80509;BME280;69838;52.602;13.434;2023-07-08T02:34:32;101618.78;;;11.10;91.53
80509;BME280;69838;52.602;13.434;2023-07-08T02:35:17;101618.00;;;11.06;91.51
80509;BME280;69838;52.602;13.434;2023-07-08T02:36:03;101619.00;;;11.04;91.70
80509;BME280;69838;52.602;13.434;2023-07-08T02:36:48;101615.50;;;11.02;91.95
80509;BME280;69838;52.602;13.434;2023-07-08T02:37:34;101614.59;;;11.01;92.04
80509;BME280;69838;52.602;13.434;2023-07-08T02:38:19;101619.13;;;11.01;92.09
80509;BME280;69838;52.602;13.434;2023-07-08T02:39:04;101614.59;;;11.01;92.49
80509;BME280;69838;52.602;13.434;2023-07-08T02:39:50;101610.97;;;11.02;92.29
80509;BME280;69838;52.602;13.434;2023-07-08T02:40:36;101610.19;;;10.99;92.08
80509;BME280;69838;52.602;13.434;2023-07-08T02:41:21;101606.53;;;11.00;92.12
80509;BME280;69838;52.602;13.434;2023-07-08T02:42:06;101619.00;;;11.04;92.14
80509;BME280;69838;52.602;13.434;2023-07-08T02:42:52;101609.13;;;11.03;92.24
80509;BME280;69838;52.602;13.434;2023-07-08T02:43:38;101613.59;;;11.04;91.99
80509;BME280;69838;52.602;13.434;2023-07-08T02:44:24;101619.00;;;11.04;92.32
80509;BME280;69838;52.602;13.434;2023-07-08T02:45:10;101616.41;;;11.01;92.15
80509;BME280;69838;52.602;13.434;2023-07-08T02:45:55;101605.66;;;10.99;92.13
80509;BME280;69838;52.602;13.434;2023-07-08T02:46:41;101616.56;;;10.96;92.34
80509;BME280;69838;52.602;13.434;2023-07-08T02:47:26;101619.34;;;10.95;92.11
80509;BME280;69838;52.602;13.434;2023-07-08T02:48:11;101619.34;;;10.95;92.22
80509;BME280;69838;52.602;13.434;2023-07-08T02:48:56;101617.56;;;10.94;92.32
80509;BME280;69838;52.602;13.434;2023-07-08T02:49:42;101614.88;;;10.94;92.22
80509;BME280;69838;52.602;13.434;2023-07-08T02:50:27;101620.22;;;10.95;92.26
80509;BME280;69838;52.602;13.434;2023-07-08T02:51:12;101615.69;;;10.96;92.75
80509;BME280;69838;52.602;13.434;2023-07-08T02:51:57;101617.34;;;11.00;92.91
80509;BME280;69838;52.602;13.434;2023-07-08T02:52:43;101613.94;;;10.95;92.31
80509;BME280;69838;52.602;13.434;2023-07-08T02:53:28;101618.44;;;10.94;92.42
80509;BME280;69838;52.602;13.434;2023-07-08T02:54:14;101613.94;;;10.95;92.30
80509;BME280;69838;52.602;13.434;2023-07-08T02:54:59;101611.41;;;10.90;92.29
80509;BME280;69838;52.602;13.434;2023-07-08T02:55:44;101616.84;;;10.88;92.31
80509;BME280;69838;52.602;13.434;2023-07-08T02:56:29;101622.22;;;10.90;92.62
80509;BME280;69838;52.602;13.434;2023-07-08T02:57:14;101617.81;;;10.87;92.53
80509;BME280;69838;52.602;13.434;2023-07-08T02:58:00;101616.84;;;10.88;92.70
80509;BME280;69838;52.602;13.434;2023-07-08T02:58:45;101621.09;;;10.96;92.13
80509;BME280;69838;52.602;13.434;2023-07-08T02:59:30;101620.22;;;10.95;92.08
80509;BME280;69838;52.602;13.434;2023-07-08T03:00:16;101614.94;;;10.92;92.51
80509;BME280;69838;52.602;13.434;2023-07-08T03:01:01;101616.69;;;10.93;92.36
80509;BME280;69838;52.602;13.434;2023-07-08T03:01:46;101621.16;;;10.94;92.28
80509;BME280;69838;52.602;13.434;2023-07-08T03:02:32;101617.63;;;10.92;92.35
80509;BME280;69838;52.602;13.434;2023-07-08T03:03:17;101614.88;;;10.94;92.38
80509;BME280;69838;52.602;13.434;2023-07-08T03:04:02;101617.81;;;10.87;92.45
80509;BME280;69838;52.602;13.434;2023-07-08T03:04:48;101615.09;;;10.87;92.42
80509;BME280;69838;52.602;13.434;2023-07-08T03:05:35;101620.50;;;10.87;92.60
80509;BME280;69838;52.602;13.434;2023-07-08T03:06:21;101609.72;;;10.87;92.85
80509;BME280;69838;52.602;13.434;2023-07-08T03:07:07;101616.91;;;10.87;92.87
80509;BME280;69838;52.602;13.434;2023-07-08T03:07:56;101617.09;;;10.82;92.64
80509;BME280;69838;52.602;13.434;2023-07-08T03:08:41;101616.25;;;10.80;92.61
80509;BME280;69838;52.602;13.434;2023-07-08T03:09:27;101614.38;;;10.82;92.71
80509;BME280;69838;52.602;13.434;2023-07-08T03:10:13;101620.66;;;10.83;92.95
80509;BME280;69838;52.602;13.434;2023-07-08T03:11:01;101609.84;;;10.83;92.94
80509;BME280;69838;52.602;13.434;2023-07-08T03:11:47;101624.13;;;10.86;92.99
80509;BME280;69838;52.602;13.434;2023-07-08T03:12:32;101620.50;;;10.87;92.56
80509;BME280;69838;52.602;13.434;2023-07-08T03:13:17;101619.66;;;10.85;92.95
80509;BME280;69838;52.602;13.434;2023-07-08T03:14:03;101623.31;;;10.84;93.00
80509;BME280;69838;52.602;13.434;2023-07-08T03:14:48;101622.31;;;10.87;92.81
80509;BME280;69838;52.602;13.434;2023-07-08T03:15:33;101621.34;;;10.89;92.91
80509;BME280;69838;52.602;13.434;2023-07-08T03:16:18;101617.81;;;10.87;92.56
80509;BME280;69838;52.602;13.434;2023-07-08T03:17:04;101620.38;;;10.91;92.97
80509;BME280;69838;52.602;13.434;2023-07-08T03:17:50;101621.19;;;10.93;92.71
80509;BME280;69838;52.602;13.434;2023-07-08T03:18:35;101616.69;;;10.93;92.79
80509;BME280;69838;52.602;13.434;2023-07-08T03:19:23;101624.00;;;10.91;93.23
80509;BME280;69838;52.602;13.434;2023-07-08T03:20:10;101619.47;;;10.92;92.89
80509;BME280;69838;52.602;13.434;2023-07-08T03:20:56;101612.16;;;10.94;93.06
80509;BME280;69838;52.602;13.434;2023-07-08T03:21:43;101619.28;;;10.96;93.36
80509;BME280;69838;52.602;13.434;2023-07-08T03:22:28;101624.81;;;10.93;93.29
80509;BME280;69838;52.602;13.434;2023-07-08T03:23:13;101610.53;;;10.89;93.44
80509;BME280;69838;52.602;13.434;2023-07-08T03:23:58;101614.09;;;10.90;93.18
80509;BME280;69838;52.602;13.434;2023-07-08T03:24:44;101615.78;;;10.93;92.94
80509;BME280;69838;52.602;13.434;2023-07-08T03:25:32;101617.69;;;10.91;92.96
80509;BME280;69838;52.602;13.434;2023-07-08T03:26:20;101607.09;;;10.84;92.92
80509;BME280;69838;52.602;13.434;2023-07-08T03:27:07;101618.63;;;10.89;92.83
80509;BME280;69838;52.602;13.434;2023-07-08T03:27:52;101624.03;;;10.89;92.91
80509;BME280;69838;52.602;13.434;2023-07-08T03:28:37;101623.09;;;10.91;92.92
80509;BME280;69838;52.602;13.434;2023-07-08T03:29:23;101608.66;;;10.92;93.11
80509;BME280;69838;52.602;13.434;2023-07-08T03:30:08;101621.28;;;10.91;93.01
80509;BME280;69838;52.602;13.434;2023-07-08T03:30:54;101617.69;;;10.91;92.79
80509;BME280;69838;52.602;13.434;2023-07-08T03:31:39;101619.47;;;10.92;92.70
80509;BME280;69838;52.602;13.434;2023-07-08T03:32:25;101616.69;;;10.93;92.69
80509;BME280;69838;52.602;13.434;2023-07-08T03:33:11;101615.69;;;10.96;93.20
80509;BME280;69838;52.602;13.434;2023-07-08T03:33:56;101615.69;;;10.96;92.92
80509;BME280;69838;52.602;13.434;2023-07-08T03:34:42;101620.22;;;10.95;92.63
80509;BME280;69838;52.602;13.434;2023-07-08T03:35:27;101616.41;;;11.01;92.75
80509;BME280;69838;52.602;13.434;2023-07-08T03:36:15;101616.41;;;11.01;93.01
80509;BME280;69838;52.602;13.434;2023-07-08T03:37:09;101611.00;;;11.01;92.98
80509;BME280;69838;52.602;13.434;2023-07-08T03:37:54;101613.72;;;11.01;92.84
80509;BME280;69838;52.602;13.434;2023-07-08T03:38:40;101618.25;;;11.00;92.89
80509;BME280;69838;52.602;13.434;2023-07-08T03:39:25;101611.84;;;11.03;92.86
80509;BME280;69838;52.602;13.434;2023-07-08T03:40:10;101615.34;;;11.05;92.96
80509;BME280;69838;52.602;13.434;2023-07-08T03:40:56;101612.56;;;11.08;92.87
80509;BME280;69838;52.602;13.434;2023-07-08T03:41:41;101614.38;;;11.07;92.62
80509;BME280;69838;52.602;13.434;2023-07-08T03:42:26;101613.41;;;11.08;92.74
80509;BME280;69838;52.602;13.434;2023-07-08T03:43:11;101617.03;;;11.09;92.75
80509;BME280;69838;52.602;13.434;2023-07-08T03:43:57;101611.63;;;11.09;92.78
80509;BME280;69838;52.602;13.434;2023-07-08T03:44:42;101607.97;;;11.10;92.59
80509;BME280;69838;52.602;13.434;2023-07-08T03:45:27;101608.63;;;11.17;92.70
80509;BME280;69838;52.602;13.434;2023-07-08T03:46:14;101613.25;;;11.13;92.66
80509;BME280;69838;52.602;13.434;2023-07-08T03:46:59;101617.66;;;11.16;92.64
80509;BME280;69838;52.602;13.434;2023-07-08T03:47:45;101609.50;;;11.17;92.64
80509;BME280;69838;52.602;13.434;2023-07-08T03:48:30;101616.69;;;11.18;92.76
80509;BME280;69838;52.602;13.434;2023-07-08T03:49:17;101611.28;;;11.18;92.42
80509;BME280;69838;52.602;13.434;2023-07-08T03:50:21;101607.50;;;11.22;92.47
80509;BME280;69838;52.602;13.434;2023-07-08T03:51:10;101612.81;;;11.25;92.68
80509;BME280;69838;52.602;13.434;2023-07-08T03:51:59;101619.03;;;11.27;92.45
80509;BME280;69838;52.602;13.434;2023-07-08T03:52:46;101609.84;;;11.32;92.91
80509;BME280;69838;52.602;13.434;2023-07-08T03:53:31;101616.09;;;11.34;92.90
80509;BME280;69838;52.602;13.434;2023-07-08T03:54:18;101613.28;;;11.37;92.54
80509;BME280;69838;52.602;13.434;2023-07-08T03:55:04;101614.97;;;11.39;92.49
80509;BME280;69838;52.602;13.434;2023-07-08T03:55:49;101620.38;;;11.39;91.97
80509;BME280;69838;52.602;13.434;2023-07-08T03:56:34;101615.88;;;11.40;91.79
80509;BME280;69838;52.602;13.434;2023-07-08T03:57:20;101615.88;;;11.40;91.62
80509;BME280;69838;52.602;13.434;2023-07-08T03:58:05;101612.22;;;11.41;91.69
80509;BME280;69838;52.602;13.434;2023-07-08T03:58:51;101619.38;;;11.42;91.73
80509;BME280;69838;52.602;13.434;2023-07-08T03:59:36;101619.38;;;11.42;91.09
80509;BME280;69838;52.602;13.434;2023-07-08T04:00:22;101617.50;;;11.44;91.16
80509;BME280;69838;52.602;13.434;2023-07-08T04:01:17;101615.69;;;11.44;91.08
80509;BME280;69838;52.602;13.434;2023-07-08T04:02:03;101610.31;;;11.43;90.99
80509;BME280;69838;52.602;13.434;2023-07-08T04:02:49;101620.91;;;11.49;91.14
80509;BME280;69838;52.602;13.434;2023-07-08T04:03:34;101617.16;;;11.53;91.40
80509;BME280;69838;52.602;13.434;2023-07-08T04:04:19;101623.44;;;11.54;91.50
80509;BME280;69838;52.602;13.434;2023-07-08T04:05:05;101621.31;;;11.62;91.84
80509;BME280;69838;52.602;13.434;2023-07-08T04:05:50;101615.91;;;11.62;91.39